Time;durP1;ratioP1;P1;durP2;ratioP2;P2;SDS_P1;SDS_P2;PMS_P1;PMS_P2;Temp;Humidity;BMP_temperature;BMP_pressure;BME280_temperature;BME280_humidity;BME280_pressure;Samples;Min_cycle;Max_cycle;Signal;HPM_P1;HPM_P2
2022/07/13 00:02:26;;;;;;;12.10;11.60;;;18.00;99.90;;;;;;4953909;29;20622;-70
2022/07/13 00:04:52;;;;;;;12.10;11.60;;;18.00;99.90;;;;;;4953641;29;20519;-69
2022/07/13 00:07:20;;;;;;;12.40;11.53;;;17.90;99.90;;;;;;4953851;29;20997;-69
2022/07/13 00:09:47;;;;;;;12.07;11.47;;;17.90;99.90;;;;;;4953868;29;20461;-69
2022/07/13 00:12:14;;;;;;;12.30;11.80;;;17.90;99.90;;;;;;4953695;29;20453;-70
2022/07/13 00:14:40;;;;;;;11.90;11.30;;;17.80;99.90;;;;;;4953736;29;20460;-70
2022/07/13 00:17:07;;;;;;;11.23;10.83;;;17.80;99.90;;;;;;4953983;29;20515;-69
2022/07/13 00:19:34;;;;;;;12.43;11.83;;;17.70;99.90;;;;;;4953972;29;20453;-69
2022/07/13 00:22:00;;;;;;;12.10;11.50;;;17.70;99.90;;;;;;4953246;29;21284;-69
2022/07/13 00:24:28;;;;;;;13.27;12.27;;;17.70;99.90;;;;;;4953501;29;20912;-69
2022/07/13 00:26:55;;;;;;;12.50;11.80;;;17.70;99.90;;;;;;4953314;29;20457;-69
2022/07/13 00:29:22;;;;;;;13.10;12.30;;;17.60;99.90;;;;;;4953064;29;20921;-69
2022/07/13 00:31:49;;;;;;;12.40;11.90;;;17.60;99.90;;;;;;4953249;29;20984;-69
2022/07/13 00:34:15;;;;;;;12.17;11.57;;;17.60;99.90;;;;;;4953639;29;20471;-69
2022/07/13 00:36:42;;;;;;;12.60;12.10;;;17.60;99.90;;;;;;4953089;29;20843;-70
2022/07/13 00:39:09;;;;;;;12.27;11.80;;;17.60;99.90;;;;;;4953220;29;20531;-69
2022/07/13 00:41:44;;;;;;;13.07;12.37;;;17.60;99.90;;;;;;4952866;29;21097;-69
2022/07/13 00:44:11;;;;;;;13.20;12.53;;;17.60;99.90;;;;;;4953152;29;20703;-70
2022/07/13 00:46:38;;;;;;;14.20;13.40;;;17.60;99.90;;;;;;4951861;28;20511;-69
2022/07/13 00:49:05;;;;;;;12.50;12.00;;;17.50;99.90;;;;;;4953236;29;20463;-70
2022/07/13 00:51:32;;;;;;;12.30;11.80;;;17.50;99.90;;;;;;4952798;29;20449;-70
2022/07/13 00:54:00;;;;;;;12.97;12.47;;;17.50;99.90;;;;;;4952809;29;20452;-69
2022/07/13 00:56:27;;;;;;;11.70;11.30;;;17.50;99.90;;;;;;4953005;29;20460;-69
2022/07/13 00:58:56;;;;;;;12.07;11.37;;;17.40;99.90;;;;;;4952774;29;20515;-69
2022/07/13 01:01:23;;;;;;;12.27;11.77;;;17.40;99.90;;;;;;4952429;29;20484;-69
2022/07/13 01:03:50;;;;;;;12.03;11.53;;;17.40;99.90;;;;;;4952591;29;20460;-69
2022/07/13 01:06:18;;;;;;;12.20;11.60;;;17.30;99.90;;;;;;4952790;29;20455;-68
2022/07/13 01:08:45;;;;;;;12.97;12.20;;;17.20;99.90;;;;;;4952711;29;20524;-69
2022/07/13 03:59:24;;;;;;;15.03;14.10;;;16.30;99.90;;;;;;5102655;23;20623;-74
2022/07/13 04:01:51;;;;;;;14.63;13.80;;;16.20;99.90;;;;;;4978899;28;20490;-73
2022/07/13 04:04:17;;;;;;;15.30;14.40;;;16.20;99.90;;;;;;4991355;28;20450;-73
2022/07/13 04:06:44;;;;;;;14.10;13.40;;;16.30;99.90;;;;;;4990350;28;20478;-74
2022/07/13 04:09:11;;;;;;;14.70;13.90;;;16.20;99.90;;;;;;4980807;28;20546;-74
2022/07/13 04:11:37;;;;;;;14.67;14.07;;;16.20;99.90;;;;;;4979419;28;20861;-75
2022/07/13 04:14:04;;;;;;;14.83;14.03;;;16.20;99.90;;;;;;4979130;28;20459;-75
2022/07/13 04:16:32;;;;;;;14.70;13.90;;;16.20;99.90;;;;;;4979395;28;20521;-75
2022/07/13 04:18:59;;;;;;;16.57;15.60;;;16.20;99.90;;;;;;4984685;28;20473;-74
2022/07/13 04:21:25;;;;;;;16.83;15.63;;;16.20;99.90;;;;;;4988113;28;20470;-74
2022/07/13 04:23:52;;;;;;;16.23;15.33;;;16.20;99.90;;;;;;4990239;28;20542;-73
2022/07/13 04:26:19;;;;;;;15.73;14.90;;;16.20;99.90;;;;;;4990174;28;20936;-74
2022/07/13 04:28:46;;;;;;;15.57;14.67;;;16.20;99.90;;;;;;4988503;28;20501;-74
2022/07/13 04:31:13;;;;;;;14.77;13.97;;;16.20;99.90;;;;;;4990193;28;20847;-75
2022/07/13 04:33:41;;;;;;;14.97;14.07;;;16.30;99.90;;;;;;4989929;28;20450;-75
2022/07/13 04:36:08;;;;;;;15.47;14.47;;;16.30;99.90;;;;;;4977799;28;20450;-74
2022/07/13 04:38:35;;;;;;;14.23;13.40;;;16.70;99.90;;;;;;4975687;28;20456;-74
2022/07/13 04:41:02;;;;;;;14.10;13.30;;;17.20;99.90;;;;;;4982126;28;20790;-75
2022/07/13 04:43:28;;;;;;;13.97;13.27;;;17.60;99.90;;;;;;4989849;28;20493;-74
2022/07/13 04:45:55;;;;;;;13.07;12.27;;;17.90;99.90;;;;;;4989822;28;20921;-74
2022/07/13 04:48:22;;;;;;;13.43;12.83;;;18.20;99.90;;;;;;4990271;28;20447;-75
2022/07/13 04:50:50;;;;;;;14.23;13.00;;;18.30;99.90;;;;;;4992441;28;20450;-74
2022/07/13 04:53:16;;;;;;;12.50;11.80;;;18.40;99.90;;;;;;4991367;28;20490;-73
2022/07/13 04:55:43;;;;;;;12.40;11.80;;;18.70;99.90;;;;;;4991936;28;20903;-74
2022/07/13 04:58:10;;;;;;;12.73;12.03;;;18.80;99.90;;;;;;4991942;28;20487;-73
2022/07/13 05:00:36;;;;;;;12.00;11.50;;;18.90;99.90;;;;;;4992073;28;20999;-73
2022/07/13 05:03:03;;;;;;;11.70;11.10;;;19.10;99.90;;;;;;4992583;28;20459;-73
2022/07/13 05:05:32;;;;;;;11.50;11.10;;;19.20;99.90;;;;;;4992098;28;20545;-73
2022/07/13 05:08:00;;;;;;;13.80;13.00;;;19.50;99.90;;;;;;4989533;28;20944;-74
2022/07/13 05:10:27;;;;;;;13.43;12.50;;;19.70;99.90;;;;;;4972319;28;20459;-73
2022/07/13 05:12:54;;;;;;;12.53;12.03;;;20.10;99.90;;;;;;4972342;28;20510;-74
2022/07/13 05:15:20;;;;;;;12.80;12.20;;;20.30;99.90;;;;;;4972302;28;20814;-74
2022/07/13 05:17:51;;;;;;;14.50;13.50;;;20.40;99.90;;;;;;4972180;28;20444;-73
2022/07/13 05:20:17;;;;;;;13.20;12.20;;;20.10;99.90;;;;;;4972267;28;20459;-75
2022/07/13 05:22:44;;;;;;;13.00;12.40;;;20.20;99.90;;;;;;4972269;28;20823;-74
2022/07/13 05:25:12;;;;;;;12.30;11.70;;;20.20;99.90;;;;;;4972262;28;20937;-75
2022/07/13 05:27:39;;;;;;;12.20;11.70;;;20.20;99.90;;;;;;4972068;28;20455;-74
2022/07/13 05:30:06;;;;;;;11.70;11.30;;;20.20;99.90;;;;;;4972328;28;20456;-73
2022/07/13 05:32:35;;;;;;;11.60;11.10;;;20.40;99.90;;;;;;4971243;28;20487;-75
2022/07/13 05:35:02;;;;;;;11.67;11.17;;;20.50;99.90;;;;;;4972038;28;20467;-76
2022/07/13 05:37:29;;;;;;;12.50;12.00;;;20.50;99.90;;;;;;4972404;28;20479;-73
2022/07/13 05:39:55;;;;;;;12.30;11.80;;;20.50;99.90;;;;;;4971886;28;20988;-74
2022/07/13 05:42:23;;;;;;;12.30;11.80;;;20.70;99.90;;;;;;4972157;28;20448;-73
2022/07/13 05:44:50;;;;;;;12.03;11.53;;;20.80;99.90;;;;;;4971981;28;20965;-73
2022/07/13 05:47:17;;;;;;;12.53;11.80;;;21.10;99.90;;;;;;4972303;28;20499;-73
2022/07/13 05:49:43;;;;;;;12.00;11.60;;;21.30;99.90;;;;;;4972737;28;20523;-73
2022/07/13 05:52:10;;;;;;;12.13;11.47;;;21.50;99.90;;;;;;4972562;28;20479;-74
2022/07/13 05:54:37;;;;;;;12.40;11.60;;;21.80;99.90;;;;;;4972256;28;20452;-73
2022/07/13 05:57:04;;;;;;;12.33;11.83;;;22.00;99.90;;;;;;4972018;28;20471;-73
2022/07/13 05:59:33;;;;;;;12.40;11.90;;;21.90;99.90;;;;;;4971713;28;20495;-73
2022/07/13 06:01:59;;;;;;;11.90;11.30;;;21.70;99.90;;;;;;4971832;28;20484;-74
2022/07/13 06:04:26;;;;;;;12.10;11.70;;;21.30;99.90;;;;;;4971677;28;20459;-73
2022/07/13 06:06:53;;;;;;;14.03;13.07;;;21.10;99.90;;;;;;4971522;28;20507;-73
2022/07/13 06:09:20;;;;;;;13.03;12.50;;;21.00;99.90;;;;;;4973996;28;20470;-73
2022/07/13 06:11:47;;;;;;;12.60;12.07;;;21.10;99.90;;;;;;4980123;28;20474;-74
2022/07/13 06:14:13;;;;;;;12.63;12.03;;;21.60;99.90;;;;;;4971631;28;20904;-73
2022/07/13 06:16:41;;;;;;;12.90;12.40;;;21.70;99.90;;;;;;4971499;28;20456;-74
2022/07/13 06:19:08;;;;;;;12.67;12.07;;;21.60;99.90;;;;;;4971289;28;20455;-74
2022/07/13 06:21:35;;;;;;;13.70;12.90;;;21.50;99.90;;;;;;4971583;28;20443;-74
2022/07/13 06:24:02;;;;;;;13.87;13.17;;;21.50;99.90;;;;;;4971733;28;20766;-73
2022/07/13 06:26:28;;;;;;;12.50;12.10;;;21.40;99.90;;;;;;4971436;28;20542;-74
2022/07/13 06:28:55;;;;;;;12.90;12.40;;;21.20;99.90;;;;;;4971493;28;20533;-74
2022/07/13 06:31:22;;;;;;;12.60;12.10;;;21.00;99.90;;;;;;4971542;28;20463;-74
2022/07/13 06:33:51;;;;;;;12.93;12.13;;;21.10;99.90;;;;;;4971768;28;20546;-74
2022/07/13 06:36:18;;;;;;;12.30;11.80;;;21.20;99.90;;;;;;4971614;28;20487;-75
2022/07/13 06:38:44;;;;;;;12.50;12.00;;;21.10;99.90;;;;;;4971300;28;20466;-75
2022/07/13 06:41:11;;;;;;;13.33;12.50;;;21.40;99.90;;;;;;4971555;28;20482;-75
2022/07/13 06:43:38;;;;;;;13.07;12.40;;;21.80;99.90;;;;;;4973460;28;20454;-75
2022/07/13 06:46:05;;;;;;;13.60;13.00;;;21.70;99.90;;;;;;4975070;28;20455;-75
2022/07/13 06:48:32;;;;;;;13.20;12.37;;;21.70;99.90;;;;;;4974982;28;20487;-74
2022/07/13 06:51:00;;;;;;;12.60;11.80;;;22.10;99.90;;;;;;4974860;28;21001;-73
2022/07/13 06:53:27;;;;;;;11.70;11.20;;;22.30;99.90;;;;;;4974987;28;20483;-75
2022/07/13 06:55:54;;;;;;;13.00;12.30;;;22.30;99.90;;;;;;4974673;28;20459;-74
2022/07/13 06:58:21;;;;;;;13.33;12.57;;;22.60;99.90;;;;;;4975017;28;20489;-74
2022/07/13 07:00:47;;;;;;;13.97;13.27;;;22.90;99.90;;;;;;4974664;28;20502;-75
2022/07/13 07:03:14;;;;;;;14.10;13.40;;;23.00;99.90;;;;;;4974662;28;20816;-75
2022/07/13 07:05:41;;;;;;;13.33;12.73;;;23.40;99.90;;;;;;4974750;28;20459;-72
2022/07/13 07:08:09;;;;;;;14.80;13.90;;;23.60;99.70;;;;;;4974480;28;20463;-73
2022/07/13 07:10:37;;;;;;;14.20;13.40;;;23.50;99.60;;;;;;4974583;28;20455;-73
2022/07/13 07:13:03;;;;;;;14.47;13.67;;;24.10;98.50;;;;;;4974652;28;20487;-75
2022/07/13 07:15:30;;;;;;;13.63;12.97;;;25.00;96.90;;;;;;4974487;28;20458;-74
2022/07/13 07:17:57;;;;;;;13.13;12.53;;;25.40;94.90;;;;;;4974823;28;20455;-75
2022/07/13 07:20:23;;;;;;;13.40;12.70;;;25.60;94.30;;;;;;4975040;28;20448;-75
2022/07/13 07:22:50;;;;;;;13.23;12.60;;;25.90;93.30;;;;;;4975217;28;20470;-75
2022/07/13 07:25:19;;;;;;;13.40;12.80;;;25.80;92.70;;;;;;4974966;28;20454;-75
2022/07/13 07:27:45;;;;;;;12.90;12.37;;;25.60;92.60;;;;;;4974922;28;20964;-77
2022/07/13 07:30:12;;;;;;;13.00;12.40;;;25.70;92.30;;;;;;4974142;28;20510;-75
2022/07/13 07:32:40;;;;;;;12.67;12.13;;;26.10;91.00;;;;;;4974044;28;20493;-76
2022/07/13 07:35:07;;;;;;;13.20;12.60;;;26.80;90.00;;;;;;4974095;28;20476;-75
2022/07/13 07:37:35;;;;;;;13.73;12.90;;;27.20;87.80;;;;;;4975505;28;20483;-77
2022/07/13 07:40:02;;;;;;;13.47;12.77;;;27.40;88.10;;;;;;4973994;28;20468;-76
2022/07/13 07:42:30;;;;;;;13.57;12.97;;;27.60;86.80;;;;;;4974198;28;20738;-76
2022/07/13 07:44:57;;;;;;;14.00;13.30;;;28.10;85.20;;;;;;4973941;28;21008;-76
2022/07/13 07:47:25;;;;;;;15.07;14.27;;;28.30;84.00;;;;;;4974076;28;20494;-75
2022/07/13 07:49:52;;;;;;;14.23;13.43;;;28.60;83.20;;;;;;4974273;28;20460;-75
2022/07/13 07:52:19;;;;;;;13.27;12.77;;;28.90;81.40;;;;;;4973933;28;20456;-76
2022/07/13 07:54:46;;;;;;;14.23;13.13;;;29.70;79.70;;;;;;4973069;28;20542;-75
2022/07/13 07:57:13;;;;;;;13.73;13.13;;;29.70;78.20;;;;;;4973602;28;20925;-76
2022/07/13 07:59:42;;;;;;;14.60;13.70;;;29.70;78.00;;;;;;4973436;28;20479;-76
2022/07/13 08:02:09;;;;;;;13.90;13.30;;;30.40;76.60;;;;;;4973738;28;20487;-77
2022/07/13 08:04:35;;;;;;;12.80;12.30;;;31.10;73.80;;;;;;4973439;28;20463;-76
2022/07/13 08:07:02;;;;;;;14.07;13.50;;;31.00;73.40;;;;;;4973462;28;20820;-75
2022/07/13 08:09:29;;;;;;;13.93;13.30;;;32.10;70.40;;;;;;4973158;28;20827;-76
2022/07/13 08:11:56;;;;;;;13.43;13.03;;;32.70;68.00;;;;;;4973184;28;20547;-75
2022/07/13 08:14:23;;;;;;;14.10;13.20;;;34.00;61.90;;;;;;4973303;28;20498;-75
2022/07/13 08:16:51;;;;;;;13.90;13.20;;;34.50;59.70;;;;;;4973715;28;20460;-75
2022/07/13 08:19:18;;;;;;;14.27;13.77;;;33.40;60.60;;;;;;4973523;28;20483;-75
2022/07/13 08:21:44;;;;;;;13.90;13.37;;;32.90;61.20;;;;;;4973364;28;20463;-74
2022/07/13 08:24:11;;;;;;;13.50;12.90;;;33.00;61.20;;;;;;4972788;28;20961;-73
2022/07/13 08:26:38;;;;;;;13.93;13.00;;;32.90;60.00;;;;;;4973151;28;20443;-73
2022/07/13 08:29:05;;;;;;;13.73;13.23;;;32.30;61.10;;;;;;4973314;28;20471;-73
2022/07/13 08:31:31;;;;;;;13.20;12.80;;;32.10;60.90;;;;;;4973010;28;20822;-73
2022/07/13 08:39:28;;;;;;;13.40;12.90;;;33.30;59.00;;;;;;4972828;28;20850;-73
2022/07/13 08:41:57;;;;;;;14.00;13.40;;;33.90;57.00;;;;;;4972947;28;20460;-73
2022/07/13 08:44:24;;;;;;;14.10;13.30;;;34.00;56.40;;;;;;4973064;28;20511;-73
2022/07/13 08:46:51;;;;;;;14.03;13.50;;;33.70;57.70;;;;;;4972783;28;20459;-73
2022/07/13 08:49:20;;;;;;;13.67;13.17;;;34.00;56.50;;;;;;4972685;28;20456;-73
2022/07/13 08:51:48;;;;;;;14.27;13.63;;;33.60;56.80;;;;;;4972542;28;21265;-73
2022/07/13 08:54:15;;;;;;;14.67;14.03;;;33.30;57.20;;;;;;4972728;28;20492;-73
2022/07/13 08:56:42;;;;;;;14.23;13.73;;;33.70;56.10;;;;;;4972239;28;20467;-73
2022/07/13 08:59:08;;;;;;;14.77;13.87;;;33.90;54.70;;;;;;4972462;28;20506;-73
2022/07/13 09:01:43;;;;;;;13.00;12.50;;;34.30;53.60;;;;;;4973212;28;20462;-73
2022/07/13 09:04:11;;;;;;;14.20;13.60;;;34.30;53.60;;;;;;4972152;28;20456;-73
2022/07/13 09:06:49;;;;;;;15.20;14.50;;;34.50;53.00;;;;;;4971525;28;20535;-73
2022/07/13 09:09:33;;;;;;;14.57;14.00;;;34.70;51.50;;;;;;4972230;28;20807;-73
2022/07/13 09:12:16;;;;;;;14.63;14.03;;;33.50;53.20;;;;;;4972109;28;20452;-73
2022/07/13 09:14:44;;;;;;;14.07;13.57;;;33.00;53.90;;;;;;4972095;28;20475;-72
2022/07/13 09:17:30;;;;;;;14.57;13.97;;;32.40;54.20;;;;;;4972177;28;20447;-73
2022/07/13 09:19:58;;;;;;;14.03;13.63;;;32.60;54.20;;;;;;4971715;28;20490;-73
2022/07/13 09:22:26;;;;;;;13.63;13.23;;;33.20;52.90;;;;;;4972040;28;20443;-73
2022/07/13 09:24:53;;;;;;;14.60;13.97;;;33.10;51.80;;;;;;4972230;28;20452;-72
2022/07/13 09:27:21;;;;;;;15.03;14.33;;;32.60;52.80;;;;;;4972083;28;20463;-73
2022/07/13 09:29:47;;;;;;;14.60;14.10;;;32.20;53.80;;;;;;4972063;28;20452;-73
2022/07/13 09:32:15;;;;;;;14.43;13.47;;;32.40;54.40;;;;;;4971806;28;20460;-73
2022/07/13 09:34:47;;;;;;;15.20;14.63;;;32.90;53.60;;;;;;4972073;28;20487;-73
2022/07/13 09:37:15;;;;;;;15.07;14.47;;;33.90;51.80;;;;;;4971952;28;20456;-73
2022/07/13 09:40:06;;;;;;;15.73;14.53;;;35.00;49.20;;;;;;4972050;28;20503;-74
2022/07/13 09:42:35;;;;;;;15.93;15.07;;;36.00;46.80;;;;;;4971916;28;20463;-75
2022/07/13 09:47:52;;;;;;;15.63;15.03;;;37.30;45.70;;;;;;4972359;28;20439;-76
2022/07/13 09:50:19;;;;;;;15.50;14.90;;;37.20;45.30;;;;;;4972451;28;20483;-74
2022/07/13 09:52:47;;;;;;;15.23;14.00;;;36.70;45.50;;;;;;4972798;28;20468;-74
2022/07/13 09:55:19;;;;;;;15.30;14.60;;;36.40;45.80;;;;;;4972380;28;20968;-73
2022/07/13 09:57:48;;;;;;;15.80;15.20;;;36.20;45.40;;;;;;4971607;28;20495;-74
2022/07/13 10:00:18;;;;;;;16.20;15.40;;;37.20;45.00;;;;;;4971823;28;20462;-74
2022/07/13 10:02:49;;;;;;;14.70;14.10;;;37.80;43.90;;;;;;4971716;28;20515;-74
2022/07/13 10:05:17;;;;;;;15.63;15.07;;;37.40;43.40;;;;;;4971805;28;20487;-74
2022/07/13 10:10:47;;;;;;;14.73;14.23;;;37.10;43.10;;;;;;4966397;28;20432;-74
2022/07/13 10:13:14;;;;;;;16.10;15.50;;;38.10;42.50;;;;;;4971333;28;20483;-74
2022/07/13 10:15:41;;;;;;;16.27;15.50;;;38.70;40.20;;;;;;4971182;28;20451;-74
2022/07/13 10:18:10;;;;;;;15.90;15.20;;;38.50;39.90;;;;;;4972577;28;20874;-74
2022/07/13 10:20:41;;;;;;;14.90;14.37;;;38.80;37.90;;;;;;4975405;28;20486;-74
2022/07/13 10:23:09;;;;;;;14.07;13.57;;;38.00;36.30;;;;;;4975071;28;20941;-74
2022/07/13 10:25:43;;;;;;;16.33;15.30;;;37.90;35.40;;;;;;4975355;28;20510;-74
2022/07/13 10:28:12;;;;;;;14.40;13.90;;;38.00;35.70;;;;;;4975167;28;20455;-74
2022/07/13 10:30:39;;;;;;;14.80;14.30;;;37.30;34.00;;;;;;4974476;28;20821;-74
2022/07/13 10:33:19;;;;;;;14.00;13.60;;;37.00;34.90;;;;;;4975547;28;20462;-73
2022/07/13 10:35:50;;;;;;;14.47;13.93;;;37.80;33.60;;;;;;4975134;28;20459;-74
2022/07/13 10:38:20;;;;;;;14.70;14.20;;;37.70;34.70;;;;;;4974926;28;20455;-74
2022/07/13 10:40:47;;;;;;;13.93;13.50;;;37.30;34.60;;;;;;4974642;28;20459;-74
2022/07/13 10:43:24;;;;;;;15.37;14.57;;;37.30;32.50;;;;;;4974762;28;20452;-74
2022/07/13 10:45:52;;;;;;;13.97;13.47;;;37.50;32.90;;;;;;4975049;28;20455;-74
2022/07/13 10:48:42;;;;;;;15.60;15.00;;;37.70;32.60;;;;;;4975004;28;20451;-74
2022/07/13 10:51:18;;;;;;;14.83;14.40;;;38.90;32.50;;;;;;4974493;28;20465;-74
2022/07/13 10:54:09;;;;;;;13.70;13.20;;;39.10;28.60;;;;;;4974661;28;20482;-75
2022/07/13 10:56:35;;;;;;;13.53;13.13;;;38.40;27.30;;;;;;4974964;28;20916;-74
2022/07/13 10:59:04;;;;;;;14.00;13.50;;;38.40;28.30;;;;;;4974504;28;20491;-74
2022/07/13 11:01:41;;;;;;;15.53;14.87;;;39.10;28.10;;;;;;4974552;28;20455;-74
2022/07/13 11:04:09;;;;;;;15.10;14.50;;;40.10;27.40;;;;;;4974464;28;20561;-74
2022/07/13 11:06:38;;;;;;;15.10;14.60;;;39.80;28.20;;;;;;4974866;28;20884;-74
2022/07/13 11:09:11;;;;;;;14.33;13.83;;;39.20;29.40;;;;;;4974677;28;20455;-74
2022/07/13 11:11:45;;;;;;;15.03;14.33;;;38.20;29.80;;;;;;4974177;28;20459;-75
2022/07/13 11:14:48;;;;;;;14.53;14.03;;;39.10;29.10;;;;;;4974453;28;20506;-75
2022/07/13 11:17:16;;;;;;;14.77;14.20;;;40.10;27.70;;;;;;4974204;28;20455;-75
2022/07/13 11:19:54;;;;;;;14.87;14.37;;;39.80;27.70;;;;;;4974312;28;20928;-74
2022/07/13 11:22:21;;;;;;;15.17;14.57;;;40.00;27.40;;;;;;4974604;28;20451;-75
2022/07/13 11:25:14;;;;;;;14.03;13.53;;;41.20;26.60;;;;;;4974154;28;21037;-73
2022/07/13 11:27:55;;;;;;;14.53;14.00;;;40.80;25.20;;;;;;4974277;28;20436;-75
2022/07/13 11:30:29;;;;;;;14.57;14.17;;;39.80;26.20;;;;;;4973393;28;20462;-75
2022/07/13 11:32:55;;;;;;;14.00;13.60;;;39.60;26.40;;;;;;4974280;28;20459;-76
2022/07/13 11:35:23;;;;;;;14.50;13.90;;;40.00;26.10;;;;;;4974271;28;20451;-75
2022/07/13 11:37:50;;;;;;;15.40;14.60;;;39.80;25.70;;;;;;4974035;28;20968;-74
2022/07/13 11:40:27;;;;;;;15.73;15.23;;;40.70;26.40;;;;;;4973827;28;20455;-75
2022/07/13 11:42:54;;;;;;;14.40;14.00;;;41.70;26.40;;;;;;4973900;28;20455;-75
2022/07/13 11:45:30;;;;;;;16.43;15.93;;;42.20;24.20;;;;;;4974037;28;20886;-75
2022/07/13 11:48:01;;;;;;;15.70;15.10;;;42.00;24.40;;;;;;4973843;28;20455;-75
2022/07/13 11:50:48;;;;;;;16.13;15.63;;;42.70;24.10;;;;;;4973741;28;20562;-74
2022/07/13 11:53:23;;;;;;;15.90;15.30;;;42.90;22.60;;;;;;4973323;28;20554;-74
2022/07/13 11:55:50;;;;;;;15.73;15.17;;;42.90;22.40;;;;;;4973761;28;20446;-75
2022/07/13 11:58:25;;;;;;;16.30;15.50;;;42.40;22.00;;;;;;4973416;28;20581;-73
2022/07/13 12:00:53;;;;;;;15.00;14.50;;;41.20;22.60;;;;;;4973528;28;20463;-73
2022/07/13 12:03:31;;;;;;;15.30;14.70;;;40.30;23.50;;;;;;4973382;28;20482;-73
2022/07/13 12:06:02;;;;;;;14.90;14.40;;;39.90;24.30;;;;;;4973681;28;20474;-73
2022/07/13 12:08:31;;;;;;;14.40;13.80;;;39.40;24.40;;;;;;4973281;28;20440;-73
2022/07/13 12:10:58;;;;;;;14.80;14.30;;;38.50;24.80;;;;;;4973149;28;20486;-74
2022/07/13 12:13:25;;;;;;;14.40;14.00;;;38.60;25.30;;;;;;4973071;28;20448;-73
2022/07/13 12:15:53;;;;;;;14.57;14.07;;;38.80;23.60;;;;;;4973291;28;20451;-73
2022/07/13 12:18:20;;;;;;;14.60;14.10;;;39.10;23.00;;;;;;4973104;28;20809;-73
2022/07/13 12:20:46;;;;;;;13.93;13.27;;;38.90;23.80;;;;;;4973067;28;20444;-74
2022/07/13 12:23:13;;;;;;;14.90;14.40;;;39.00;24.30;;;;;;4973259;28;20447;-73
2022/07/13 12:25:40;;;;;;;14.43;13.93;;;40.20;24.00;;;;;;4972814;28;20827;-73
2022/07/13 12:28:09;;;;;;;14.50;14.00;;;41.00;23.00;;;;;;4973099;28;20456;-73
2022/07/13 12:30:38;;;;;;;14.70;14.20;;;40.60;23.40;;;;;;4973062;28;20960;-74
2022/07/13 12:33:09;;;;;;;14.47;13.97;;;40.60;23.40;;;;;;4973066;28;20477;-74
2022/07/13 12:35:37;;;;;;;14.23;13.57;;;39.30;24.60;;;;;;4972909;28;20848;-73
2022/07/13 12:38:09;;;;;;;14.40;13.80;;;38.80;25.30;;;;;;4972961;28;20483;-74
2022/07/13 12:40:40;;;;;;;13.23;12.73;;;38.80;25.50;;;;;;4972612;28;20563;-73
2022/07/13 12:43:16;;;;;;;14.30;13.60;;;38.70;25.10;;;;;;4972609;28;20822;-74
2022/07/13 12:45:45;;;;;;;14.43;13.93;;;38.50;25.10;;;;;;4972762;28;20955;-74
2022/07/13 12:48:18;;;;;;;13.37;12.97;;;37.90;25.40;;;;;;4972510;28;20452;-73
2022/07/13 12:50:57;;;;;;;13.30;12.50;;;38.10;25.30;;;;;;4972508;28;20467;-73
2022/07/13 12:53:23;;;;;;;13.60;13.20;;;37.30;25.60;;;;;;4972628;28;21078;-73
2022/07/13 12:55:51;;;;;;;13.50;13.00;;;37.20;25.10;;;;;;4972632;28;20452;-74
2022/07/13 12:58:19;;;;;;;13.80;13.40;;;37.30;25.10;;;;;;4972382;28;20511;-73
2022/07/13 13:00:45;;;;;;;12.47;12.07;;;37.30;24.70;;;;;;4972329;28;20455;-73
2022/07/13 13:03:12;;;;;;;13.63;13.10;;;37.30;24.80;;;;;;4972340;28;20474;-73
2022/07/13 13:05:41;;;;;;;14.00;13.60;;;37.00;25.10;;;;;;4972313;28;20507;-74
2022/07/13 13:08:08;;;;;;;13.33;12.93;;;36.30;27.20;;;;;;4972578;28;20938;-74
2022/07/13 13:10:34;;;;;;;13.60;13.10;;;35.90;27.90;;;;;;4972341;28;20950;-74
2022/07/13 13:13:01;;;;;;;12.40;12.00;;;36.20;27.90;;;;;;4972476;28;20456;-74
2022/07/13 13:15:28;;;;;;;13.60;13.20;;;35.90;27.80;;;;;;4972080;28;20582;-73
2022/07/13 13:17:54;;;;;;;14.17;13.77;;;36.10;27.90;;;;;;4972257;28;20445;-74
2022/07/13 13:20:21;;;;;;;12.83;12.40;;;36.30;27.70;;;;;;4972400;28;20460;-73
2022/07/13 13:22:49;;;;;;;12.87;12.37;;;36.10;27.00;;;;;;4972101;28;20470;-74
2022/07/13 13:25:16;;;;;;;13.13;12.63;;;35.80;26.90;;;;;;4972239;28;20492;-73
2022/07/13 13:27:43;;;;;;;13.37;12.83;;;35.80;26.80;;;;;;4971973;28;20535;-74
2022/07/13 13:32:54;;;;;;;12.60;12.20;;;35.80;26.90;;;;;;4971847;28;20435;-74
2022/07/13 13:35:21;;;;;;;13.77;13.17;;;35.60;27.30;;;;;;4971714;28;20941;-74
2022/07/13 13:37:49;;;;;;;12.97;12.57;;;36.10;26.00;;;;;;4971641;28;20980;-73
2022/07/13 13:40:16;;;;;;;12.57;12.17;;;35.80;26.30;;;;;;4971623;28;20476;-73
2022/07/13 13:42:43;;;;;;;12.87;12.43;;;35.60;26.70;;;;;;4971701;28;20459;-73
2022/07/13 13:45:11;;;;;;;13.50;12.93;;;35.20;27.00;;;;;;4971919;28;20483;-73
2022/07/13 13:47:38;;;;;;;12.43;12.03;;;35.10;27.50;;;;;;4972075;28;20491;-73
2022/07/13 13:50:05;;;;;;;12.70;12.30;;;35.20;27.20;;;;;;4972199;28;20463;-73
2022/07/13 13:52:32;;;;;;;12.97;12.47;;;35.00;27.60;;;;;;4971284;28;20459;-73
2022/07/13 13:55:01;;;;;;;13.23;12.73;;;34.90;27.30;;;;;;4971791;28;20455;-73
2022/07/13 13:57:27;;;;;;;13.83;13.23;;;34.70;27.40;;;;;;4971303;28;20482;-73
2022/07/13 13:59:54;;;;;;;12.83;12.43;;;34.80;27.30;;;;;;4971686;28;20462;-73
2022/07/13 14:02:21;;;;;;;12.90;12.50;;;34.90;26.60;;;;;;4971716;28;20965;-73
2022/07/13 14:04:47;;;;;;;13.20;12.70;;;35.20;26.70;;;;;;4971309;28;20506;-73
2022/07/13 14:07:14;;;;;;;12.00;11.60;;;35.20;26.90;;;;;;4971285;28;20580;-74
2022/07/13 14:09:41;;;;;;;11.90;11.50;;;34.80;26.70;;;;;;4971620;28;20938;-73
2022/07/13 14:12:09;;;;;;;12.90;12.50;;;34.20;27.50;;;;;;4971529;28;20484;-73
2022/07/13 14:14:36;;;;;;;12.90;12.47;;;33.50;28.20;;;;;;4971407;28;20949;-73
2022/07/13 14:17:03;;;;;;;12.90;12.20;;;33.50;28.90;;;;;;4971425;28;20455;-73
2022/07/13 14:19:30;;;;;;;13.33;12.40;;;33.50;28.80;;;;;;4971310;28;20460;-73
2022/07/13 14:21:56;;;;;;;12.90;12.50;;;33.20;29.70;;;;;;4971655;28;21194;-73
2022/07/13 14:24:24;;;;;;;12.10;11.70;;;32.80;30.20;;;;;;4971221;28;20460;-73
2022/07/13 14:26:51;;;;;;;12.27;11.80;;;32.60;30.00;;;;;;4971665;28;20491;-73
2022/07/13 14:29:19;;;;;;;12.60;12.10;;;32.60;30.20;;;;;;4971207;28;20448;-73
2022/07/13 14:31:45;;;;;;;12.30;11.80;;;32.50;30.70;;;;;;4969559;28;20455;-74
2022/07/13 14:34:13;;;;;;;11.37;10.97;;;32.40;30.90;;;;;;4971166;28;20452;-73
2022/07/13 14:36:40;;;;;;;12.10;11.70;;;32.30;30.90;;;;;;4971513;28;20462;-73
2022/07/13 14:39:06;;;;;;;11.60;11.20;;;32.30;31.10;;;;;;4971532;28;20456;-72
2022/07/13 14:41:33;;;;;;;12.23;11.83;;;32.30;31.30;;;;;;4971456;28;20454;-72
2022/07/13 14:44:00;;;;;;;12.10;11.70;;;32.30;32.20;;;;;;4971220;28;20518;-72
2022/07/13 14:46:28;;;;;;;12.40;12.00;;;32.30;32.20;;;;;;4971149;28;20551;-73
2022/07/13 14:48:54;;;;;;;12.50;12.00;;;32.20;32.20;;;;;;4970978;28;20554;-73
2022/07/13 14:51:21;;;;;;;11.70;11.20;;;32.20;32.10;;;;;;4971279;28;20451;-73
2022/07/13 14:53:48;;;;;;;12.40;11.90;;;32.20;31.90;;;;;;4971256;28;20812;-72
2022/07/13 14:56:15;;;;;;;12.00;11.50;;;32.20;32.00;;;;;;4970867;28;20482;-72
2022/07/13 14:58:42;;;;;;;13.00;12.60;;;32.40;30.70;;;;;;4970833;28;20483;-72
2022/07/13 15:01:09;;;;;;;12.20;11.80;;;32.50;30.50;;;;;;4971130;28;20518;-72
2022/07/13 15:03:37;;;;;;;12.93;12.33;;;32.60;30.70;;;;;;4971660;28;20459;-73
2022/07/13 15:06:04;;;;;;;12.10;11.70;;;32.90;31.30;;;;;;4971347;28;20498;-72
2022/07/13 15:08:31;;;;;;;12.17;11.77;;;33.00;29.90;;;;;;4974387;28;20452;-73
2022/07/13 15:10:57;;;;;;;12.20;11.60;;;33.20;31.30;;;;;;4974407;28;20550;-73
2022/07/13 15:13:24;;;;;;;12.50;12.00;;;33.20;32.40;;;;;;4974474;28;20502;-72
2022/07/13 15:15:51;;;;;;;11.90;11.40;;;33.10;33.30;;;;;;4974791;28;20550;-72
2022/07/13 15:18:18;;;;;;;12.30;11.70;;;33.00;32.70;;;;;;4974991;28;20458;-72
2022/07/13 15:20:46;;;;;;;13.43;12.50;;;32.80;36.00;;;;;;4979907;28;20551;-73
2022/07/13 15:23:12;;;;;;;14.37;13.20;;;32.50;38.60;;;;;;4990047;28;20451;-73
2022/07/13 15:25:39;;;;;;;12.50;11.70;;;32.20;39.70;;;;;;4976123;28;20482;-72
2022/07/13 15:28:06;;;;;;;12.30;11.70;;;32.00;39.30;;;;;;4977952;28;20570;-73
2022/07/13 15:30:33;;;;;;;11.50;11.07;;;31.80;41.20;;;;;;4994105;28;20447;-73
2022/07/13 15:33:00;;;;;;;11.90;11.40;;;31.40;41.30;;;;;;4994034;28;20471;-73
2022/07/13 15:35:27;;;;;;;12.00;11.60;;;31.00;38.70;;;;;;4994135;28;20451;-73
2022/07/13 15:37:55;;;;;;;12.60;11.90;;;30.90;39.10;;;;;;4983467;28;20955;-73